Terminal Aerodrome Forecast
Issued by NWS Tampa Bay Area, FL

Home | Current Version | Previous Version | Text Only | Print | Product List | Glossary On
Versions: 1 2 3 4 5 6 7 8 9 10 11 12 13 14 15 16 17 18 19 20 21 22 23 24 25 26 27 28 29 30 31 32
000
FTUS42 KTBW 052300 CCA
TAFTPA
TAF COR
KTPA 052327Z 0600/0624 22008KT P6SM SCT050 BKN250
     FM060700 34006KT 4SM BR FEW001 SCT005 OVC015
     FM061300 01009KT P6SM FEW007 SCT015 OVC025=

USA.gov is the U.S. government's official web portal to all federal, state and local government web resources and services.